Time;durP1;ratioP1;P1;durP2;ratioP2;P2;SDS_P1;SDS_P2;PMS_P1;PMS_P2;Temp;Humidity;BMP_temperature;BMP_pressure;BME280_temperature;BME280_humidity;BME280_pressure;Samples;Min_cycle;Max_cycle;Signal;HPM_P1;HPM_P2
2023/08/29 00:01:17;;;;;;;0.10;0.10;;;;;;;-142.57;100.00;115900.28;4977313;28;20513;-83
2023/08/29 00:03:42;;;;;;;0.90;0.30;;;;;;;-142.57;100.00;115900.28;4976717;28;20463;-82
2023/08/29 00:06:08;;;;;;;1.73;0.17;;;;;;;-142.57;100.00;115900.28;4975962;28;20103;-84
2023/08/29 00:08:33;;;;;;;0.13;0.13;;;;;;;-142.57;100.00;115900.28;4974703;28;20113;-82
2023/08/29 00:11:01;;;;;;;0.32;0.22;;;;;;;-142.57;100.00;115900.28;4975995;28;20049;-82
2023/08/29 00:13:26;;;;;;;1.38;0.32;;;;;;;-142.57;100.00;115900.28;4976329;28;20030;-84
2023/08/29 00:15:52;;;;;;;3.00;0.45;;;;;;;-142.57;100.00;115900.28;4976598;28;20031;-83
2023/08/29 00:18:21;;;;;;;2.20;0.17;;;;;;;-142.57;100.00;115900.28;4975626;28;20030;-84
2023/08/29 00:20:47;;;;;;;0.65;0.20;;;;;;;-142.57;100.00;115900.28;4975134;28;20396;-83
2023/08/29 00:23:12;;;;;;;3.42;0.25;;;;;;;-142.57;100.00;115900.28;4975147;28;20051;-82
2023/08/29 00:25:38;;;;;;;0.57;0.20;;;;;;;-142.57;100.00;115900.28;4975460;28;20031;-82
2023/08/29 00:28:04;;;;;;;0.30;0.20;;;;;;;-142.57;100.00;115900.28;4967571;28;20098;-82
2023/08/29 00:30:36;;;;;;;0.57;0.30;;;;;;;-142.57;100.00;115900.28;4957130;28;20118;-82
2023/08/29 00:33:02;;;;;;;1.37;0.27;;;;;;;-142.57;100.00;115900.28;4961335;28;20039;-81
2023/08/29 00:35:27;;;;;;;0.10;0.10;;;;;;;-142.57;100.00;115900.28;4980212;28;20290;-82
2023/08/29 00:37:53;;;;;;;2.15;0.20;;;;;;;-142.57;100.00;115900.28;4982688;28;20023;-80
2023/08/29 00:40:21;;;;;;;1.30;0.32;;;;;;;-142.57;100.00;115900.28;4999544;28;20019;-82
2023/08/29 00:42:47;;;;;;;0.63;0.28;;;;;;;-142.57;100.00;115900.28;4983665;28;20038;-83
2023/08/29 00:45:13;;;;;;;2.28;0.20;;;;;;;-142.57;100.00;115900.28;4984608;28;20412;-83
2023/08/29 00:47:40;;;;;;;0.30;0.17;;;;;;;-142.57;100.00;115900.28;4979471;28;20031;-81
2023/08/29 00:50:08;;;;;;;0.45;0.20;;;;;;;-142.57;100.00;115900.28;4950313;28;20034;-82
2023/08/29 00:52:34;;;;;;;2.17;0.20;;;;;;;-142.57;100.00;115900.28;4977248;28;20045;-83
2023/08/29 00:55:00;;;;;;;0.55;0.10;;;;;;;-142.57;100.00;115900.28;4958416;28;20035;-82
2023/08/29 00:57:25;;;;;;;1.65;0.20;;;;;;;-142.57;100.00;115900.28;4958017;28;20039;-83
2023/08/29 00:59:51;;;;;;;1.48;0.22;;;;;;;-142.57;100.00;115900.28;4969828;28;20031;-83
2023/08/29 01:02:17;;;;;;;1.98;0.43;;;;;;;-142.57;100.00;115900.28;4960906;28;20035;-81
2023/08/29 01:04:43;;;;;;;1.70;0.20;;;;;;;-142.57;100.00;115900.28;4975719;28;20038;-82
2023/08/29 01:07:09;;;;;;;2.67;0.30;;;;;;;-142.57;100.00;115900.28;4976587;28;20085;-83
2023/08/29 01:09:35;;;;;;;0.77;0.20;;;;;;;-142.57;100.00;115900.28;4959738;28;20449;-82
2023/08/29 01:12:18;;;;;;;1.55;0.20;;;;;;;-142.57;100.00;115900.28;4956001;29;20083;-81
2023/08/29 01:15:10;;;;;;;1.23;0.20;;;;;;;-142.57;100.00;115900.28;4956851;28;20073;-82
2023/08/29 01:18:02;;;;;;;0.17;0.17;;;;;;;-142.57;100.00;115900.28;4957553;29;20054;-82
2023/08/29 01:20:30;;;;;;;1.45;0.20;;;;;;;-142.57;100.00;115900.28;4967141;28;20396;-82
2023/08/29 01:23:01;;;;;;;3.42;0.20;;;;;;;-142.57;100.00;115900.28;4974700;28;20110;-83
2023/08/29 01:25:58;;;;;;;0.40;0.40;;;;;;;-142.57;100.00;115900.28;4974059;28;20038;-81
2023/08/29 01:28:28;;;;;;;1.95;0.20;;;;;;;-142.57;100.00;115900.28;4950970;28;20117;-82
2023/08/29 01:30:56;;;;;;;1.25;0.22;;;;;;;-142.57;100.00;115900.28;4974270;28;20034;-83
2023/08/29 01:33:22;;;;;;;0.40;0.30;;;;;;;-142.57;100.00;115900.28;4974797;28;20094;-82
2023/08/29 01:35:48;;;;;;;2.92;0.30;;;;;;;-142.57;100.00;115900.28;4975079;28;20035;-82
2023/08/29 01:38:17;;;;;;;1.27;0.30;;;;;;;-142.57;100.00;115900.28;4975018;28;20122;-82
2023/08/29 01:40:43;;;;;;;0.63;0.30;;;;;;;-142.57;100.00;115900.28;4952691;28;20572;-81
2023/08/29 01:43:09;;;;;;;0.75;0.20;;;;;;;-142.57;100.00;115900.28;4954171;29;20023;-81
2023/08/29 01:45:34;;;;;;;0.30;0.30;;;;;;;-142.57;100.00;115900.28;4955532;29;20043;-82
2023/08/29 01:48:00;;;;;;;2.38;0.30;;;;;;;-142.57;100.00;115900.28;4966160;28;20044;-83
2023/08/29 01:50:29;;;;;;;0.50;0.20;;;;;;;-142.57;100.00;115900.28;4971433;28;20130;-83
2023/08/29 01:52:56;;;;;;;0.22;0.20;;;;;;;-142.57;100.00;115900.28;4973474;28;20030;-81
2023/08/29 01:55:23;;;;;;;0.32;0.20;;;;;;;-142.57;100.00;115900.28;4975899;28;20137;-83
2023/08/29 01:57:51;;;;;;;3.45;0.40;;;;;;;-142.57;100.00;115900.28;4973667;28;20035;-83
2023/08/29 02:00:17;;;;;;;0.30;0.20;;;;;;;-142.57;100.00;115900.28;4963741;28;20039;-80
2023/08/29 02:02:43;;;;;;;1.75;0.30;;;;;;;-142.57;100.00;115900.28;4973023;28;20117;-81
2023/08/29 02:05:09;;;;;;;0.73;0.30;;;;;;;-142.57;100.00;115900.28;4973258;28;20414;-85
2023/08/29 02:07:35;;;;;;;0.47;0.30;;;;;;;-142.57;100.00;115900.28;4974658;28;20042;-84
2023/08/29 02:10:01;;;;;;;1.02;0.20;;;;;;;-142.57;100.00;115900.28;4971578;28;20039;-84
2023/08/29 02:12:26;;;;;;;2.35;0.20;;;;;;;-142.57;100.00;115900.28;4974534;28;20146;-84
2023/08/29 02:14:52;;;;;;;0.28;0.15;;;;;;;-142.57;100.00;115900.28;4974386;28;20121;-84
2023/08/29 02:17:17;;;;;;;0.85;0.22;;;;;;;-142.57;100.00;115900.28;4973547;28;20035;-84
2023/08/29 02:19:43;;;;;;;1.38;0.20;;;;;;;-142.57;100.00;115900.28;4973365;28;20038;-85
2023/08/29 02:22:12;;;;;;;0.50;0.25;;;;;;;-142.57;100.00;115900.28;4964887;28;20038;-84
2023/08/29 02:24:38;;;;;;;1.17;0.20;;;;;;;-142.57;100.00;115900.28;4974933;28;20039;-83
2023/08/29 02:27:04;;;;;;;2.58;0.20;;;;;;;-142.57;100.00;115900.28;4974499;28;20062;-83
2023/08/29 02:29:30;;;;;;;1.38;0.30;;;;;;;-142.57;100.00;115900.28;4972296;28;20054;-84
2023/08/29 02:31:56;;;;;;;2.95;0.20;;;;;;;-142.57;100.00;115900.28;4973513;28;20050;-83
2023/08/29 02:34:24;;;;;;;1.52;0.30;;;;;;;-142.57;100.00;115900.28;4976932;28;20050;-83
2023/08/29 02:36:50;;;;;;;2.15;0.30;;;;;;;-142.57;100.00;115900.28;4981192;28;20069;-83
2023/08/29 02:39:16;;;;;;;1.88;0.30;;;;;;;-142.57;100.00;115900.28;4978379;28;20038;-82
2023/08/29 02:41:42;;;;;;;0.70;0.20;;;;;;;-142.57;100.00;115900.28;4968408;28;20029;-82
2023/08/29 02:44:07;;;;;;;1.38;0.25;;;;;;;-142.57;100.00;115900.28;4960648;28;20031;-84
2023/08/29 02:46:33;;;;;;;4.13;0.30;;;;;;;-142.57;100.00;115900.28;4978254;28;20038;-82
2023/08/29 02:48:59;;;;;;;1.48;0.30;;;;;;;-142.57;100.00;115900.28;4977784;28;20025;-82
2023/08/29 02:51:25;;;;;;;0.73;0.28;;;;;;;-142.57;100.00;115900.28;4976650;28;20511;-82
2023/08/29 02:53:50;;;;;;;1.08;0.28;;;;;;;-142.57;100.00;115900.28;4976182;28;20039;-83
2023/08/29 02:56:16;;;;;;;1.83;0.30;;;;;;;-142.57;100.00;115900.28;4978251;28;20057;-83
2023/08/29 02:58:42;;;;;;;0.70;0.20;;;;;;;-142.57;100.00;115900.28;4977740;28;20078;-84
2023/08/29 03:01:11;;;;;;;3.92;0.30;;;;;;;-142.57;100.00;115900.28;4977130;28;20523;-83
2023/08/29 03:03:37;;;;;;;3.08;0.68;;;;;;;-142.57;100.00;115900.28;4977157;28;20133;-83
2023/08/29 03:06:02;;;;;;;5.20;0.50;;;;;;;-142.57;100.00;115900.28;4977061;28;20113;-81
2023/08/29 03:08:28;;;;;;;1.17;0.60;;;;;;;-142.57;100.00;115900.28;4976023;28;20050;-82
2023/08/29 03:10:54;;;;;;;3.10;0.85;;;;;;;-142.57;100.00;115900.28;4975974;28;20038;-82
2023/08/29 03:13:23;;;;;;;2.22;1.20;;;;;;;-142.57;100.00;115900.28;4976495;28;20126;-82
2023/08/29 03:15:48;;;;;;;4.30;0.50;;;;;;;-142.57;100.00;115900.28;4976414;28;20196;-83
2023/08/29 03:18:14;;;;;;;1.95;0.45;;;;;;;-142.57;100.00;115900.28;4977195;28;20042;-83
2023/08/29 03:20:43;;;;;;;2.35;0.50;;;;;;;-142.57;100.00;115900.28;4976186;28;20101;-83
2023/08/29 03:23:12;;;;;;;1.75;0.30;;;;;;;-142.57;100.00;115900.28;4977112;28;20027;-82
2023/08/29 03:25:38;;;;;;;9.63;0.40;;;;;;;-142.57;100.00;115900.28;4977439;28;20546;-82
2023/08/29 03:28:04;;;;;;;3.72;0.30;;;;;;;-142.57;100.00;115900.28;4977531;28;20038;-84
2023/08/29 03:30:30;;;;;;;2.80;0.47;;;;;;;-142.57;100.00;115900.28;4974431;28;20748;-81
2023/08/29 03:32:56;;;;;;;6.85;0.50;;;;;;;-142.57;100.00;115900.28;4965675;28;20046;-83
2023/08/29 03:35:22;;;;;;;0.65;0.28;;;;;;;-142.57;100.00;115900.28;4956352;29;20054;-82
2023/08/29 03:37:48;;;;;;;7.60;0.40;;;;;;;-142.57;100.00;115900.28;4957892;29;20102;-83
2023/08/29 03:40:14;;;;;;;1.10;0.40;;;;;;;-142.57;100.00;115900.28;4968686;28;20181;-82
2023/08/29 03:42:39;;;;;;;1.05;0.20;;;;;;;-142.57;100.00;115900.28;4969881;28;20073;-83
2023/08/29 03:45:08;;;;;;;0.60;0.30;;;;;;;-142.57;100.00;115900.28;4974985;28;20047;-82
2023/08/29 03:47:34;;;;;;;1.13;0.28;;;;;;;-142.57;100.00;115900.28;4976214;28;20090;-82
2023/08/29 03:50:00;;;;;;;0.43;0.20;;;;;;;-142.57;100.00;115900.28;4974913;28;20404;-84
2023/08/29 03:52:26;;;;;;;0.75;0.25;;;;;;;-142.57;100.00;115900.28;4966278;28;20070;-81
2023/08/29 03:54:56;;;;;;;0.20;0.20;;;;;;;-142.57;100.00;115900.28;4975617;28;20496;-83
2023/08/29 03:57:28;;;;;;;1.00;0.30;;;;;;;-142.57;100.00;115900.28;4976028;28;20477;-83
2023/08/29 03:59:54;;;;;;;0.28;0.20;;;;;;;-142.57;100.00;115900.28;4980908;28;20030;-84
2023/08/29 04:02:20;;;;;;;0.57;0.32;;;;;;;-142.57;100.00;115900.28;4974031;28;20035;-84
2023/08/29 04:04:51;;;;;;;2.17;0.30;;;;;;;-142.57;100.00;115900.28;4961636;28;20043;-83
2023/08/29 04:07:16;;;;;;;1.33;0.22;;;;;;;-142.57;100.00;115900.28;4956640;29;20043;-83
2023/08/29 04:09:43;;;;;;;0.47;0.30;;;;;;;-142.57;100.00;115900.28;4956267;29;20071;-81
2023/08/29 04:12:10;;;;;;;2.13;0.20;;;;;;;-142.57;100.00;115900.28;4956378;28;20122;-83
2023/08/29 04:14:36;;;;;;;1.15;0.30;;;;;;;-142.57;100.00;115900.28;4964489;28;20031;-83
2023/08/29 04:17:02;;;;;;;0.77;0.20;;;;;;;-142.57;100.00;115900.28;4979044;29;20033;-82
2023/08/29 04:19:27;;;;;;;4.03;0.32;;;;;;;-142.57;100.00;115900.28;4979571;28;20029;-85
2023/08/29 04:21:53;;;;;;;1.08;0.50;;;;;;;-142.57;100.00;115900.28;4980674;28;20107;-82
2023/08/29 04:24:18;;;;;;;0.20;0.20;;;;;;;-142.57;100.00;115900.28;4980965;28;20062;-80
2023/08/29 04:26:44;;;;;;;0.85;0.30;;;;;;;-142.57;100.00;115900.28;4968493;29;20046;-82
2023/08/29 04:29:09;;;;;;;2.15;0.47;;;;;;;-142.57;100.00;115900.28;4958016;28;20019;-83
2023/08/29 04:31:35;;;;;;;0.68;0.20;;;;;;;-142.57;100.00;115900.28;4967099;28;20031;-82
2023/08/29 04:34:01;;;;;;;2.42;0.30;;;;;;;-142.57;100.00;115900.28;4973521;28;20035;-82
2023/08/29 04:36:26;;;;;;;0.60;0.40;;;;;;;-142.57;100.00;115900.28;4976293;28;20034;-83
2023/08/29 04:38:52;;;;;;;1.98;0.30;;;;;;;-142.57;100.00;115900.28;4976139;28;20102;-79
2023/08/29 04:41:17;;;;;;;2.08;0.20;;;;;;;-142.57;100.00;115900.28;4975975;28;20447;-82
2023/08/29 04:43:43;;;;;;;2.38;0.20;;;;;;;-142.57;100.00;115900.28;4973636;28;20037;-79
2023/08/29 04:46:08;;;;;;;1.33;0.45;;;;;;;-142.57;100.00;115900.28;4957485;28;20074;-80
2023/08/29 04:48:35;;;;;;;3.03;0.40;;;;;;;-142.57;100.00;115900.28;4955036;29;20057;-84
2023/08/29 04:51:04;;;;;;;3.05;0.22;;;;;;;-142.57;100.00;115900.28;4955278;29;20440;-83
2023/08/29 04:53:32;;;;;;;4.03;0.52;;;;;;;-142.57;100.00;115900.28;4955139;28;20131;-81
2023/08/29 04:56:03;;;;;;;3.53;0.40;;;;;;;-142.57;100.00;115900.28;4970126;28;20591;-84
2023/08/29 04:58:33;;;;;;;3.00;0.50;;;;;;;-142.57;100.00;115900.28;4974251;28;20492;-83
2023/08/29 05:01:00;;;;;;;1.55;0.60;;;;;;;-142.57;100.00;115900.28;4973952;28;20054;-83
2023/08/29 05:03:26;;;;;;;1.48;0.50;;;;;;;-142.57;100.00;115900.28;4972165;28;20061;-82
2023/08/29 05:05:52;;;;;;;1.73;0.57;;;;;;;-142.57;100.00;115900.28;4965600;28;20539;-81
2023/08/29 05:08:18;;;;;;;2.85;0.60;;;;;;;-142.57;100.00;115900.28;4974060;28;20041;-83
2023/08/29 05:10:44;;;;;;;5.20;0.50;;;;;;;-142.57;100.00;115900.28;4975256;28;20043;-82
2023/08/29 05:13:10;;;;;;;0.93;0.50;;;;;;;-142.57;100.00;115900.28;4973459;28;20163;-83
2023/08/29 05:15:36;;;;;;;1.42;0.40;;;;;;;-142.57;100.00;115900.28;4958126;28;20028;-80
2023/08/29 05:18:02;;;;;;;4.60;0.50;;;;;;;-142.57;100.00;115900.28;4954758;29;20085;-81
2023/08/29 05:20:28;;;;;;;1.15;0.50;;;;;;;-142.57;100.00;115900.28;4957891;29;20123;-79
2023/08/29 05:22:53;;;;;;;1.95;0.50;;;;;;;-142.57;100.00;115900.28;4964719;28;20516;-82
2023/08/29 05:25:19;;;;;;;3.08;0.40;;;;;;;-142.57;100.00;115900.28;4968926;28;20035;-80
2023/08/29 05:27:44;;;;;;;8.18;0.65;;;;;;;-142.57;100.00;115900.28;4955640;28;20342;-82
2023/08/29 05:30:10;;;;;;;3.80;0.63;;;;;;;-142.57;100.00;115900.28;4955501;29;20126;-80
2023/08/29 05:32:37;;;;;;;6.20;0.63;;;;;;;-142.57;100.00;115900.28;4955649;28;20035;-83
2023/08/29 05:35:03;;;;;;;2.90;0.40;;;;;;;-142.57;100.00;115900.28;4955671;28;20551;-81
2023/08/29 05:37:28;;;;;;;6.38;0.55;;;;;;;-142.57;100.00;115900.28;4955634;28;20129;-80
2023/08/29 05:39:54;;;;;;;7.13;0.73;;;;;;;-142.57;100.00;115900.28;4957252;28;20075;-79
2023/08/29 05:42:19;;;;;;;5.28;0.70;;;;;;;-142.57;100.00;115900.28;4960818;28;20392;-79
2023/08/29 05:44:45;;;;;;;6.22;0.50;;;;;;;-142.57;100.00;115900.28;4958255;28;20031;-80
2023/08/29 05:47:11;;;;;;;3.35;0.60;;;;;;;-142.57;100.00;115900.28;4966212;28;20034;-80
2023/08/29 05:49:36;;;;;;;1.30;0.55;;;;;;;-142.57;100.00;115900.28;4975618;28;20026;-80
2023/08/29 05:52:02;;;;;;;3.75;0.40;;;;;;;-142.57;100.00;115900.28;4974973;28;20070;-81
2023/08/29 05:54:28;;;;;;;4.18;1.20;;;;;;;-142.57;100.00;115900.28;4975548;28;20031;-81
2023/08/29 05:56:54;;;;;;;3.70;1.92;;;;;;;-142.57;100.00;115900.28;4967251;28;20053;-83
2023/08/29 05:59:19;;;;;;;3.55;1.60;;;;;;;-142.57;100.00;115900.28;4976193;28;20031;-82
2023/08/29 06:01:45;;;;;;;2.80;1.60;;;;;;;-142.57;100.00;115900.28;4975066;28;20436;-80
2023/08/29 06:04:10;;;;;;;4.40;2.00;;;;;;;-142.57;100.00;115900.28;4956919;28;20050;-84
2023/08/29 06:06:39;;;;;;;8.25;1.65;;;;;;;-142.57;100.00;115900.28;4971881;28;20037;-82
2023/08/29 06:09:08;;;;;;;1.73;0.80;;;;;;;-142.57;100.00;115900.28;4973832;28;20054;-82
2023/08/29 06:11:34;;;;;;;0.75;0.57;;;;;;;-142.57;100.00;115900.28;4974347;28;20400;-81
2023/08/29 06:14:00;;;;;;;1.45;0.80;;;;;;;-142.57;100.00;115900.28;4973488;28;20412;-83
2023/08/29 06:16:26;;;;;;;2.47;0.77;;;;;;;-142.57;100.00;115900.28;4989128;28;20396;-82
2023/08/29 06:18:51;;;;;;;1.63;0.60;;;;;;;-142.57;100.00;115900.28;4969889;28;20039;-82
2023/08/29 06:21:17;;;;;;;3.38;0.60;;;;;;;-142.57;100.00;115900.28;4973465;29;20043;-82
2023/08/29 06:23:45;;;;;;;3.05;0.60;;;;;;;-142.57;100.00;115900.28;4973806;29;20041;-81
2023/08/29 06:26:15;;;;;;;3.88;0.75;;;;;;;-142.57;100.00;115900.28;4974409;28;20210;-86
2023/08/29 06:28:42;;;;;;;3.85;0.82;;;;;;;-142.57;100.00;115900.28;4977075;28;20416;-81
2023/08/29 06:31:08;;;;;;;1.08;0.60;;;;;;;-142.57;100.00;115900.28;4970090;28;20130;-83
2023/08/29 06:33:34;;;;;;;0.70;0.47;;;;;;;-142.57;100.00;115900.28;4977744;28;20039;-81
2023/08/29 06:36:00;;;;;;;1.33;0.40;;;;;;;-142.57;100.00;115900.28;4977510;28;20023;-82
2023/08/29 06:38:26;;;;;;;0.63;0.47;;;;;;;-142.57;100.00;115900.28;4974973;28;20451;-85
2023/08/29 06:40:56;;;;;;;2.00;0.50;;;;;;;-142.57;100.00;115900.28;4975383;28;20065;-80
2023/08/29 06:43:25;;;;;;;1.23;0.50;;;;;;;-142.57;100.00;115900.28;4976745;28;20035;-82
2023/08/29 06:45:54;;;;;;;5.47;0.70;;;;;;;-142.57;100.00;115900.28;4973852;28;20492;-82
2023/08/29 06:48:19;;;;;;;3.00;0.95;;;;;;;-142.57;100.00;115900.28;4983344;28;20082;-80
2023/08/29 06:50:46;;;;;;;5.53;0.88;;;;;;;-142.57;100.00;115900.28;4998511;28;20035;-84
2023/08/29 06:53:12;;;;;;;2.35;0.75;;;;;;;-142.57;100.00;115900.28;4988841;28;20034;-83
2023/08/29 06:55:37;;;;;;;3.05;0.80;;;;;;;-142.57;100.00;115900.28;4978783;28;20043;-84
2023/08/29 06:58:06;;;;;;;4.00;0.40;;;;;;;-142.57;100.00;115900.28;4975031;28;20061;-83
2023/08/29 07:00:32;;;;;;;3.22;0.40;;;;;;;-142.57;100.00;115900.28;4994363;28;20030;-84
2023/08/29 07:02:58;;;;;;;1.10;0.40;;;;;;;-142.57;100.00;115900.28;4983121;28;20034;-82
2023/08/29 07:05:24;;;;;;;1.15;0.47;;;;;;;-142.57;100.00;115900.28;4998268;28;20026;-80
2023/08/29 07:07:50;;;;;;;3.30;0.50;;;;;;;-142.57;100.00;115900.28;4994546;28;20099;-79
2023/08/29 07:10:15;;;;;;;5.63;0.60;;;;;;;-142.57;100.00;115900.28;4990502;28;20059;-80
2023/08/29 07:12:43;;;;;;;1.65;0.70;;;;;;;-142.57;100.00;115900.28;4997058;28;20035;-81
2023/08/29 07:15:09;;;;;;;2.80;0.47;;;;;;;-142.57;100.00;115900.28;4988774;28;20083;-81
2023/08/29 07:17:35;;;;;;;4.93;0.50;;;;;;;-142.57;100.00;115900.28;4978779;28;20020;-83
2023/08/29 07:20:08;;;;;;;2.97;0.50;;;;;;;-142.57;100.00;115900.28;4973613;28;20062;-82
2023/08/29 07:25:59;;;;;;;1.63;0.50;;;;;;;-142.57;100.00;115900.28;4993632;28;20077;-84
2023/08/29 07:28:24;;;;;;;1.33;0.43;;;;;;;-142.57;100.00;115900.28;5000737;28;20059;-82
2023/08/29 07:30:53;;;;;;;1.38;0.50;;;;;;;-142.57;100.00;115900.28;4998610;28;20055;-85
2023/08/29 07:37:06;;;;;;;2.97;0.60;;;;;;;-142.57;100.00;115900.28;4964937;29;20167;-86
2023/08/29 07:39:32;;;;;;;1.42;0.50;;;;;;;-142.57;100.00;115900.28;4964723;29;20497;-85
2023/08/29 07:41:57;;;;;;;2.95;0.52;;;;;;;-142.57;100.00;115900.28;4965022;29;20038;-84
2023/08/29 07:44:23;;;;;;;1.20;0.40;;;;;;;-142.57;100.00;115900.28;4969455;28;20117;-86
2023/08/29 07:46:49;;;;;;;3.50;0.40;;;;;;;-142.57;100.00;115900.28;4963541;28;20046;-86
2023/08/29 07:49:20;;;;;;;4.65;0.50;;;;;;;-142.57;100.00;115900.28;4973415;28;20380;-88
2023/08/29 07:51:51;;;;;;;8.73;0.55;;;;;;;-142.57;100.00;115900.28;4977619;28;20074;-84
2023/08/29 07:54:17;;;;;;;0.80;0.40;;;;;;;-142.57;100.00;115900.28;4972191;28;20035;-83
2023/08/29 07:56:42;;;;;;;1.23;0.52;;;;;;;-142.57;100.00;115900.28;4986255;28;20100;-86
2023/08/29 07:59:08;;;;;;;1.63;0.45;;;;;;;-142.57;100.00;115900.28;4986106;28;20035;-80
2023/08/29 08:01:33;;;;;;;3.15;0.40;;;;;;;-142.57;100.00;115900.28;4971070;28;20088;-78
2023/08/29 08:03:59;;;;;;;1.35;0.50;;;;;;;-142.57;100.00;115900.28;4983211;28;20045;-79
2023/08/29 08:06:24;;;;;;;5.35;0.60;;;;;;;-142.57;100.00;115900.28;4979892;28;20038;-81
2023/08/29 08:08:50;;;;;;;3.03;0.60;;;;;;;-142.57;100.00;115900.28;4978408;28;20023;-79
2023/08/29 08:11:16;;;;;;;2.53;0.60;;;;;;;-142.57;100.00;115900.28;4983170;28;20648;-81
2023/08/29 08:13:42;;;;;;;3.92;0.60;;;;;;;-142.57;100.00;115900.28;4970895;28;20066;-79
2023/08/29 08:16:08;;;;;;;2.63;0.88;;;;;;;-142.57;100.00;115900.28;4976480;28;20065;-82
2023/08/29 08:18:33;;;;;;;2.72;0.63;;;;;;;-142.57;100.00;115900.28;4965034;28;20473;-84
2023/08/29 08:20:59;;;;;;;2.60;0.82;;;;;;;-142.57;100.00;115900.28;4969448;28;20042;-83
2023/08/29 08:23:24;;;;;;;2.28;0.63;;;;;;;-142.57;100.00;115900.28;4965494;28;20031;-84
2023/08/29 08:25:50;;;;;;;4.03;0.63;;;;;;;-142.57;100.00;115900.28;4966894;28;20032;-81
2023/08/29 08:28:15;;;;;;;0.93;0.50;;;;;;;-142.57;100.00;115900.28;4966042;28;20043;-82
2023/08/29 08:30:45;;;;;;;3.47;0.40;;;;;;;-142.57;100.00;115900.28;4960756;28;20089;-83
2023/08/29 08:33:10;;;;;;;5.32;0.40;;;;;;;-142.57;100.00;115900.28;4963314;28;20039;-83
2023/08/29 08:35:36;;;;;;;1.05;0.30;;;;;;;-142.57;100.00;115900.28;4963158;29;20397;-81
2023/08/29 08:38:02;;;;;;;1.42;0.20;;;;;;;-142.57;100.00;115900.28;4963556;28;20035;-82
2023/08/29 08:40:30;;;;;;;2.33;0.40;;;;;;;-142.57;100.00;115900.28;4968913;28;20035;-86
2023/08/29 08:42:57;;;;;;;1.45;0.30;;;;;;;-142.57;100.00;115900.28;4967912;28;20082;-83
2023/08/29 08:45:25;;;;;;;1.55;0.40;;;;;;;-142.57;100.00;115900.28;4968878;28;20209;-82
2023/08/29 08:47:51;;;;;;;3.72;0.40;;;;;;;-142.57;100.00;115900.28;4970748;28;20058;-83
2023/08/29 08:50:19;;;;;;;7.30;0.73;;;;;;;-142.57;100.00;115900.28;4965802;28;20066;-88
2023/08/29 08:52:49;;;;;;;1.45;0.40;;;;;;;-142.57;100.00;115900.28;4970097;28;20029;-91
2023/08/29 08:55:15;;;;;;;4.70;0.60;;;;;;;-142.57;100.00;115900.28;4967377;28;20077;-84
2023/08/29 08:57:42;;;;;;;7.72;0.47;;;;;;;-142.57;100.00;115900.28;4959828;28;20063;-88
2023/08/29 09:00:08;;;;;;;0.73;0.30;;;;;;;-142.57;100.00;115900.28;4970100;28;20070;-85
2023/08/29 09:02:33;;;;;;;0.65;0.30;;;;;;;-142.57;100.00;115900.28;4976806;28;20062;-85
2023/08/29 09:04:59;;;;;;;0.93;0.30;;;;;;;-142.57;100.00;115900.28;4969492;28;20066;-83
2023/08/29 09:07:24;;;;;;;3.35;0.30;;;;;;;-142.57;100.00;115900.28;4966718;28;20032;-89
2023/08/29 09:10:12;;;;;;;2.00;0.22;;;;;;;-142.57;100.00;115900.28;4970505;28;20085;-85
2023/08/29 09:12:48;;;;;;;1.55;0.30;;;;;;;-142.57;100.00;115900.28;4971407;28;20038;-84
2023/08/29 09:15:16;;;;;;;1.20;0.43;;;;;;;-142.57;100.00;115900.28;4976251;28;20550;-86
2023/08/29 09:17:59;;;;;;;1.10;0.20;;;;;;;-142.57;100.00;115900.28;4971051;28;20484;-89
2023/08/29 09:20:29;;;;;;;2.78;0.20;;;;;;;-142.57;100.00;115900.28;4965968;28;20500;-90
2023/08/29 09:22:55;;;;;;;3.58;0.43;;;;;;;-142.57;100.00;115900.28;4970262;28;20038;-87
2023/08/29 09:25:20;;;;;;;0.38;0.20;;;;;;;-142.57;100.00;115900.28;4968541;28;20098;-87
2023/08/29 09:27:47;;;;;;;2.13;0.50;;;;;;;-142.57;100.00;115900.28;4979171;28;20031;-84
2023/08/29 09:30:15;;;;;;;2.80;0.30;;;;;;;-142.57;100.00;115900.28;4975486;28;20484;-90
2023/08/29 09:32:46;;;;;;;3.80;0.45;;;;;;;-142.57;100.00;115900.28;4970257;28;20034;-88
2023/08/29 09:35:16;;;;;;;2.78;0.40;;;;;;;-142.57;100.00;115900.28;4969178;28;20047;-88
2023/08/29 09:37:47;;;;;;;5.65;0.40;;;;;;;-142.57;98.44;115900.28;4963784;28;20621;-88
2023/08/29 09:40:17;;;;;;;1.70;0.40;;;;;;;-142.57;97.79;115900.28;4965412;28;20027;-91
2023/08/29 09:42:52;;;;;;;2.97;0.63;;;;;;;-142.57;99.16;115900.28;4967500;28;20094;-86
2023/08/29 09:45:17;;;;;;;2.85;0.65;;;;;;;-142.57;98.98;115900.28;4967812;28;20035;-89
2023/08/29 09:47:43;;;;;;;5.22;0.68;;;;;;;-142.57;96.54;115900.28;4976060;28;20027;-85
2023/08/29 09:50:08;;;;;;;2.50;0.50;;;;;;;-142.57;95.95;115900.28;4966429;28;20035;-87
2023/08/29 09:52:35;;;;;;;3.00;0.50;;;;;;;-142.57;96.71;115900.28;4973686;28;20427;-86
2023/08/29 09:55:02;;;;;;;3.17;0.57;;;;;;;-142.57;96.88;115900.28;4962319;28;20045;-90
2023/08/29 09:57:35;;;;;;;2.27;0.60;;;;;;;-142.57;97.46;115900.28;4979674;28;20030;-88
2023/08/29 10:00:08;;;;;;;1.40;0.43;;;;;;;-142.57;97.03;115900.28;4980009;28;20034;-89
2023/08/29 10:02:38;;;;;;;1.73;0.38;;;;;;;-142.57;96.60;115900.28;4974063;28;20035;-88
2023/08/29 10:05:08;;;;;;;0.77;0.30;;;;;;;-142.57;94.38;115900.28;4971532;28;20030;-80
2023/08/29 10:07:45;;;;;;;1.05;0.50;;;;;;;-142.57;92.95;115900.28;4974624;28;20031;-82
2023/08/29 10:10:13;;;;;;;2.67;0.40;;;;;;;-142.57;93.17;115900.28;4969975;28;20034;-82
2023/08/29 10:12:39;;;;;;;2.53;0.32;;;;;;;-142.57;91.61;115900.28;4971182;28;20039;-80
2023/08/29 10:15:08;;;;;;;0.68;0.30;;;;;;;-142.57;92.26;115900.28;4965218;28;20031;-82
2023/08/29 10:17:35;;;;;;;1.15;0.40;;;;;;;-142.57;90.73;115900.28;4977145;28;20038;-83
2023/08/29 10:20:09;;;;;;;3.63;0.40;;;;;;;-142.57;89.15;115900.28;4968111;28;20043;-87
2023/08/29 10:22:38;;;;;;;0.98;0.30;;;;;;;-142.57;86.30;115900.28;4965480;28;20392;-82
2023/08/29 10:25:05;;;;;;;2.47;0.30;;;;;;;-142.57;86.16;115900.28;4960855;28;20440;-80
2023/08/29 10:27:32;;;;;;;3.92;0.30;;;;;;;-142.57;86.18;115900.28;4965453;28;20047;-80
2023/08/29 10:30:17;;;;;;;5.00;0.40;;;;;;;-142.57;85.77;115900.28;4971974;28;20036;-88
2023/08/29 10:32:44;;;;;;;4.00;0.22;;;;;;;-142.57;84.17;115900.28;4957629;29;20468;-87
2023/08/29 10:35:19;;;;;;;2.60;0.40;;;;;;;-142.57;82.07;115900.28;4958229;28;20070;-85
2023/08/29 10:37:46;;;;;;;1.20;0.30;;;;;;;-142.57;81.67;115900.28;4958657;28;20031;-86
2023/08/29 10:40:14;;;;;;;1.33;0.30;;;;;;;-142.57;78.61;115900.28;4956813;28;20093;-85
2023/08/29 10:42:57;;;;;;;2.38;0.43;;;;;;;-142.57;70.53;115900.28;4956249;29;20031;-88
2023/08/29 10:45:48;;;;;;;0.47;0.30;;;;;;;-142.57;69.53;115900.28;4967603;28;20035;-86
2023/08/29 10:48:22;;;;;;;2.65;0.40;;;;;;;-142.57;66.47;115900.28;4970784;28;20074;-89
2023/08/29 10:51:12;;;;;;;2.75;0.55;;;;;;;-142.57;67.96;115900.28;4963813;28;20024;-84
2023/08/29 10:53:57;;;;;;;2.13;0.60;;;;;;;-142.57;69.10;115900.28;4962357;28;20039;-86
2023/08/29 10:56:39;;;;;;;1.83;0.43;;;;;;;-142.57;70.90;115900.28;4961679;28;20098;-90
2023/08/29 10:59:05;;;;;;;1.63;0.60;;;;;;;-142.57;74.32;115900.28;4965023;28;20051;-90
2023/08/29 11:01:31;;;;;;;3.22;0.30;;;;;;;-142.57;80.05;115900.28;4972872;28;20027;-84
2023/08/29 11:03:59;;;;;;;2.72;0.60;;;;;;;-142.57;99.79;115900.28;4979085;28;20077;-84
2023/08/29 11:06:28;;;;;;;8.38;0.80;;;;;;;-142.57;100.00;115900.28;4981869;28;20038;-87
2023/08/29 11:09:17;;;;;;;2.88;0.57;;;;;;;-142.57;100.00;115900.28;4957357;28;20078;-88
2023/08/29 11:11:43;;;;;;;4.18;0.50;;;;;;;-142.57;100.00;115900.28;4965684;28;20493;-85